Time;durP1;ratioP1;P1;durP2;ratioP2;P2;SDS_P1;SDS_P2;PMS_P1;PMS_P2;Temp;Humidity;BMP_temperature;BMP_pressure;BME280_temperature;BME280_humidity;BME280_pressure;Samples;Min_cycle;Max_cycle;Signal;HPM_P1;HPM_P2
2023/12/19 08:53:49;;;;;;;6.73;2.70;;;7.30;99.90;;;;;;4946674;29;20230;-70
2023/12/19 08:56:16;;;;;;;5.43;2.37;;;7.20;99.90;;;;;;4941487;29;20258;-70
2023/12/19 08:58:44;;;;;;;4.47;2.13;;;7.20;99.90;;;;;;4956298;28;20258;-70
2023/12/19 09:01:11;;;;;;;4.37;2.47;;;7.20;99.90;;;;;;4956254;29;20693;-72
2023/12/19 09:03:38;;;;;;;3.77;2.20;;;7.10;99.90;;;;;;4956293;29;20200;-74
2023/12/19 09:06:06;;;;;;;5.00;2.30;;;7.10;99.90;;;;;;4956307;28;20223;-74
2023/12/19 09:08:33;;;;;;;6.73;2.13;;;7.10;99.90;;;;;;4956302;28;20335;-72
2023/12/19 09:11:04;;;;;;;6.30;2.03;;;7.10;99.90;;;;;;4956246;29;20212;-76
2023/12/19 09:13:31;;;;;;;4.97;2.27;;;7.10;99.90;;;;;;4956242;28;20212;-72
2023/12/19 09:16:00;;;;;;;3.70;1.63;;;7.10;99.90;;;;;;4956258;28;20232;-77
2023/12/19 09:18:27;;;;;;;4.57;2.30;;;7.20;99.90;;;;;;4955995;28;20773;-75
2023/12/19 09:20:56;;;;;;;7.40;3.13;;;7.20;99.90;;;;;;4956072;28;20214;-91
2023/12/19 09:23:25;;;;;;;5.50;2.27;;;7.20;99.90;;;;;;4956367;29;20212;-80
2023/12/19 09:25:51;;;;;;;4.13;1.90;;;7.10;99.90;;;;;;4956338;29;20208;-79
2023/12/19 09:28:21;;;;;;;5.73;3.40;;;7.10;99.90;;;;;;4955879;28;20671;-76
2023/12/19 09:30:48;;;;;;;5.93;2.80;;;7.20;99.90;;;;;;4957222;29;20255;-77
2023/12/19 09:33:14;;;;;;;8.43;2.93;;;7.10;99.90;;;;;;4955560;28;20282;-77
2023/12/19 09:35:42;;;;;;;8.43;2.67;;;7.10;99.90;;;;;;4955040;29;20243;-74
2023/12/19 09:38:09;;;;;;;6.10;2.30;;;7.20;99.90;;;;;;4955658;28;20231;-78
2023/12/19 09:40:36;;;;;;;6.30;2.80;;;7.20;99.90;;;;;;4955640;29;20204;-79
2023/12/19 09:43:05;;;;;;;5.67;2.70;;;7.20;99.90;;;;;;4953109;28;20291;-83
2023/12/19 09:45:33;;;;;;;5.63;2.00;;;7.10;99.90;;;;;;4953484;28;20216;-81
2023/12/19 09:48:01;;;;;;;4.60;2.23;;;7.10;99.90;;;;;;4954188;29;20216;-84
2023/12/19 09:50:29;;;;;;;5.83;2.20;;;7.20;99.90;;;;;;4954382;28;20319;-78
2023/12/19 09:52:57;;;;;;;6.37;2.77;;;7.20;99.90;;;;;;4954409;28;20204;-74
2023/12/19 09:55:26;;;;;;;6.53;2.83;;;7.20;99.90;;;;;;4955239;28;20258;-76
2023/12/19 09:57:56;;;;;;;5.97;2.53;;;7.20;99.90;;;;;;4954740;28;20630;-75
2023/12/19 10:00:25;;;;;;;6.07;2.33;;;7.20;99.90;;;;;;4955491;28;20615;-74
2023/12/19 10:02:54;;;;;;;4.30;2.07;;;7.30;99.90;;;;;;4955558;28;20200;-77
2023/12/19 10:05:21;;;;;;;4.50;2.00;;;7.30;99.90;;;;;;4960760;29;20216;-73
2023/12/19 10:07:48;;;;;;;5.40;2.37;;;7.20;99.90;;;;;;4962574;29;20299;-84
2023/12/19 10:10:15;;;;;;;5.23;2.13;;;7.20;99.90;;;;;;4962332;28;20631;-76
2023/12/19 10:12:49;;;;;;;7.80;2.20;;;7.20;99.90;;;;;;4957409;28;20537;-75
2023/12/19 10:15:16;;;;;;;6.67;2.30;;;7.30;99.90;;;;;;4955374;29;20204;-78
2023/12/19 10:18:07;;;;;;;5.50;2.10;;;7.20;99.90;;;;;;4955220;28;20208;-71
2023/12/19 10:20:37;;;;;;;7.90;3.33;;;7.30;99.90;;;;;;4947757;29;20314;-70
2023/12/19 10:23:04;;;;;;;4.33;2.17;;;7.30;99.90;;;;;;4953372;29;20239;-70
2023/12/19 10:25:31;;;;;;;6.67;2.73;;;7.30;99.90;;;;;;4953234;29;20239;-70
2023/12/19 10:28:10;;;;;;;7.03;2.27;;;7.40;99.90;;;;;;4953326;29;20247;-70
2023/12/19 10:30:38;;;;;;;4.97;2.00;;;7.40;99.90;;;;;;4953184;28;20212;-70
2023/12/19 10:33:07;;;;;;;6.47;2.50;;;7.40;99.90;;;;;;4953196;28;20211;-73
2023/12/19 10:35:38;;;;;;;4.70;2.50;;;7.40;99.90;;;;;;4953523;29;20733;-70
2023/12/19 10:38:08;;;;;;;8.83;3.03;;;7.50;99.90;;;;;;4952449;29;20220;-70
2023/12/19 10:40:36;;;;;;;6.13;2.30;;;7.50;99.90;;;;;;4953027;28;20218;-71
2023/12/19 10:43:03;;;;;;;6.00;2.50;;;7.40;99.90;;;;;;4953049;28;20211;-72
2023/12/19 10:45:31;;;;;;;7.30;2.50;;;7.40;99.90;;;;;;4953034;29;20208;-75
2023/12/19 10:47:58;;;;;;;5.17;2.47;;;7.40;99.90;;;;;;4952614;28;20571;-72
2023/12/19 10:50:28;;;;;;;7.13;2.03;;;7.40;99.90;;;;;;4953083;28;20650;-75
2023/12/19 10:53:02;;;;;;;4.90;2.30;;;7.40;99.90;;;;;;4953048;28;20290;-70
2023/12/19 10:55:38;;;;;;;5.13;2.63;;;7.40;99.90;;;;;;4952275;29;20211;-70
2023/12/19 10:58:07;;;;;;;6.33;2.60;;;7.50;99.90;;;;;;4951936;29;20235;-71
2023/12/19 11:00:37;;;;;;;3.50;1.60;;;7.50;99.90;;;;;;4953042;28;20323;-70
2023/12/19 11:03:15;;;;;;;7.77;2.60;;;7.50;99.90;;;;;;4952316;29;20219;-76
2023/12/19 11:05:45;;;;;;;4.10;2.10;;;7.60;99.90;;;;;;4952909;29;20671;-71
2023/12/19 11:08:14;;;;;;;4.67;2.20;;;7.60;99.90;;;;;;4952775;28;20237;-70
2023/12/19 11:10:43;;;;;;;5.00;2.10;;;7.70;99.90;;;;;;4952717;28;20215;-70
2023/12/19 11:13:12;;;;;;;6.20;2.00;;;7.70;99.90;;;;;;4953199;29;20204;-73
2023/12/19 11:15:44;;;;;;;6.07;2.40;;;7.70;99.90;;;;;;4952938;29;20299;-71
2023/12/19 11:18:19;;;;;;;6.27;2.93;;;7.70;99.90;;;;;;4952351;28;20208;-74
2023/12/19 11:20:53;;;;;;;3.80;2.13;;;7.60;99.90;;;;;;4953057;29;20216;-70
2023/12/19 11:23:32;;;;;;;6.53;2.37;;;7.70;99.90;;;;;;4953495;28;20212;-77
2023/12/19 11:26:07;;;;;;;7.07;2.60;;;7.60;99.90;;;;;;4952817;28;20223;-74
2023/12/19 11:28:37;;;;;;;5.10;1.93;;;7.60;99.90;;;;;;4953173;28;20232;-71
2023/12/19 11:31:04;;;;;;;4.80;2.03;;;7.60;99.90;;;;;;4953302;28;20208;-73
2023/12/19 11:33:37;;;;;;;7.47;2.20;;;7.60;99.90;;;;;;4952693;28;20208;-72
2023/12/19 11:36:13;;;;;;;5.27;2.30;;;7.60;99.90;;;;;;4952868;28;20311;-70
2023/12/19 11:38:40;;;;;;;6.17;2.37;;;7.60;99.90;;;;;;4952279;28;20243;-73
2023/12/19 11:41:08;;;;;;;7.03;3.13;;;7.60;99.90;;;;;;4952358;28;20219;-71
2023/12/19 11:43:53;;;;;;;14.03;2.00;;;7.70;99.90;;;;;;4953664;28;20196;-75
2023/12/19 11:46:20;;;;;;;19.73;2.90;;;7.70;99.90;;;;;;4955057;29;20615;-74
2023/12/19 11:48:51;;;;;;;7.57;2.83;;;7.70;99.90;;;;;;4955259;28;20310;-75
2023/12/19 11:51:52;;;;;;;11.73;3.20;;;7.70;99.90;;;;;;4956222;29;20219;-73
2023/12/19 11:54:19;;;;;;;4.63;2.27;;;7.70;99.90;;;;;;4954030;29;20204;-73
2023/12/19 11:56:58;;;;;;;6.33;2.27;;;7.60;99.90;;;;;;4954237;28;20663;-72
2023/12/19 11:59:31;;;;;;;5.53;2.40;;;7.70;99.90;;;;;;4957388;28;20235;-75
2023/12/19 12:01:58;;;;;;;6.20;2.30;;;7.70;99.90;;;;;;4957448;29;20642;-76
2023/12/19 12:04:26;;;;;;;5.57;2.27;;;7.70;99.90;;;;;;4957589;28;20309;-75
2023/12/19 12:06:58;;;;;;;6.97;2.30;;;7.70;99.90;;;;;;4957651;28;20208;-75
2023/12/19 12:09:25;;;;;;;4.13;1.93;;;7.70;99.90;;;;;;4957116;29;20290;-73
2023/12/19 12:11:54;;;;;;;4.57;2.40;;;7.70;99.90;;;;;;4957698;28;20239;-79
2023/12/19 12:14:22;;;;;;;4.50;2.40;;;7.70;99.90;;;;;;4957669;28;20212;-77
2023/12/19 12:16:49;;;;;;;7.03;2.57;;;7.80;99.90;;;;;;4957577;28;20208;-75
2023/12/19 12:19:19;;;;;;;4.27;2.77;;;7.70;99.90;;;;;;4957144;28;20341;-75
2023/12/19 12:21:48;;;;;;;7.83;2.60;;;7.80;99.90;;;;;;4957347;28;20204;-75
2023/12/19 12:24:21;;;;;;;6.53;2.20;;;7.80;99.90;;;;;;4957525;28;20200;-77
2023/12/19 12:26:49;;;;;;;7.77;2.83;;;7.80;99.90;;;;;;4957280;29;20575;-77
2023/12/19 12:29:19;;;;;;;6.90;2.93;;;7.80;99.90;;;;;;4957018;28;20320;-76
2023/12/19 12:31:47;;;;;;;4.57;2.20;;;7.90;99.90;;;;;;4957087;28;20703;-75
2023/12/19 12:34:15;;;;;;;5.33;2.27;;;7.80;99.90;;;;;;4956937;29;20247;-76
2023/12/19 12:36:43;;;;;;;5.67;2.03;;;7.80;99.90;;;;;;4957169;28;20212;-76
2023/12/19 12:39:11;;;;;;;5.03;2.50;;;7.80;99.90;;;;;;4956928;28;20234;-76
2023/12/19 12:41:41;;;;;;;8.07;2.80;;;7.90;99.90;;;;;;4957417;28;20244;-75
2023/12/19 12:44:15;;;;;;;6.63;2.47;;;7.90;99.90;;;;;;4956849;28;20287;-76
2023/12/19 12:46:45;;;;;;;10.47;2.57;;;7.90;99.90;;;;;;4956870;29;20211;-76
2023/12/19 12:49:17;;;;;;;4.67;2.17;;;7.80;99.90;;;;;;4956475;28;20287;-73
2023/12/19 12:51:45;;;;;;;4.23;2.33;;;7.80;99.90;;;;;;4957181;28;20219;-76
2023/12/19 12:54:12;;;;;;;5.63;2.50;;;7.80;99.90;;;;;;4956824;29;20200;-75
2023/12/19 12:56:44;;;;;;;5.33;2.83;;;7.80;99.90;;;;;;4956827;28;20212;-76
2023/12/19 12:59:14;;;;;;;4.33;2.10;;;7.80;99.90;;;;;;4956444;28;20263;-75
2023/12/19 13:01:43;;;;;;;7.13;2.77;;;7.80;99.90;;;;;;4956467;28;20214;-76
2023/12/19 13:04:11;;;;;;;7.07;3.30;;;7.90;99.90;;;;;;4956624;28;20196;-74
2023/12/19 13:06:41;;;;;;;7.60;3.23;;;7.80;99.90;;;;;;4956646;29;20247;-75
2023/12/19 13:09:13;;;;;;;5.37;2.50;;;7.70;99.90;;;;;;4955863;28;20224;-76
2023/12/19 13:11:42;;;;;;;6.50;3.20;;;7.80;99.90;;;;;;4956585;29;20212;-75
2023/12/19 13:14:09;;;;;;;6.47;2.13;;;7.80;99.90;;;;;;4956992;29;20265;-76
2023/12/19 13:16:37;;;;;;;8.87;3.40;;;7.80;99.90;;;;;;4956845;29;20257;-77
2023/12/19 13:19:04;;;;;;;9.47;2.60;;;7.80;99.90;;;;;;4956517;28;20235;-75
2023/12/19 13:21:34;;;;;;;6.80;3.03;;;7.80;99.90;;;;;;4956728;28;20659;-76
2023/12/19 13:24:01;;;;;;;8.60;2.83;;;7.80;99.90;;;;;;4956010;28;20325;-76
2023/12/19 13:26:32;;;;;;;6.00;2.60;;;7.90;99.90;;;;;;4956497;28;20676;-75
2023/12/19 13:29:01;;;;;;;7.50;2.30;;;7.80;99.90;;;;;;4956129;28;20579;-76
2023/12/19 13:31:29;;;;;;;6.10;2.50;;;7.80;99.90;;;;;;4956572;29;20710;-75
2023/12/19 13:33:56;;;;;;;6.30;2.50;;;7.80;99.90;;;;;;4956101;28;20200;-75
2023/12/19 13:36:23;;;;;;;5.53;2.30;;;7.80;99.90;;;;;;4955909;29;20216;-75
2023/12/19 13:38:54;;;;;;;5.93;3.13;;;7.80;99.90;;;;;;4956269;28;20252;-75
2023/12/19 13:41:39;;;;;;;6.13;2.50;;;7.90;99.90;;;;;;4956167;29;20212;-75
2023/12/19 13:44:07;;;;;;;9.17;2.43;;;7.90;99.90;;;;;;4956089;29;20237;-75
2023/12/19 13:46:58;;;;;;;3.27;1.90;;;7.90;99.90;;;;;;4956153;29;20231;-75
2023/12/19 13:49:26;;;;;;;4.47;2.40;;;7.90;99.90;;;;;;4955755;28;20298;-73
2023/12/19 13:51:54;;;;;;;4.23;2.10;;;7.90;99.90;;;;;;4956140;28;20305;-76
2023/12/19 13:54:21;;;;;;;4.77;2.37;;;7.90;99.90;;;;;;4955753;28;20216;-77
2023/12/19 13:56:49;;;;;;;7.57;2.83;;;7.90;99.90;;;;;;4955634;28;20682;-76
2023/12/19 13:59:19;;;;;;;7.50;2.23;;;8.00;99.90;;;;;;4955947;28;20251;-74
2023/12/19 14:01:50;;;;;;;6.63;2.97;;;7.90;99.90;;;;;;4956064;28;20211;-75
2023/12/19 14:04:21;;;;;;;5.50;3.00;;;7.90;99.90;;;;;;4955901;28;20212;-75
2023/12/19 14:06:49;;;;;;;3.53;2.30;;;8.00;99.90;;;;;;4956084;28;20295;-76
2023/12/19 14:09:19;;;;;;;3.73;2.20;;;8.00;99.90;;;;;;4955846;28;20576;-74
2023/12/19 14:11:48;;;;;;;5.17;2.90;;;7.90;99.90;;;;;;4955783;29;20587;-75
2023/12/19 14:14:17;;;;;;;5.07;2.40;;;7.90;99.90;;;;;;4955581;29;20214;-74
2023/12/19 14:16:44;;;;;;;4.60;2.53;;;7.90;99.90;;;;;;4955622;28;20216;-74
2023/12/19 14:19:11;;;;;;;3.70;2.00;;;7.90;99.90;;;;;;4955563;28;20228;-76
2023/12/19 14:21:40;;;;;;;4.83;1.90;;;7.90;99.90;;;;;;4955420;28;20248;-74
2023/12/19 14:24:11;;;;;;;4.13;2.37;;;7.90;99.90;;;;;;4955628;28;20722;-74
2023/12/19 14:26:39;;;;;;;4.87;2.63;;;7.90;99.90;;;;;;4955811;29;20247;-75
2023/12/19 14:29:07;;;;;;;5.17;2.30;;;7.90;99.90;;;;;;4955464;28;20243;-76
2023/12/19 14:31:42;;;;;;;5.07;2.57;;;7.90;99.90;;;;;;4955613;29;20219;-74
2023/12/19 14:34:15;;;;;;;5.90;2.70;;;7.90;99.90;;;;;;4955809;28;20204;-76
2023/12/19 14:36:45;;;;;;;6.80;2.87;;;7.90;99.90;;;;;;4955703;28;20214;-76
2023/12/19 14:39:12;;;;;;;4.73;2.27;;;7.90;99.90;;;;;;4955430;28;20291;-76
2023/12/19 14:41:40;;;;;;;3.63;2.23;;;7.90;99.90;;;;;;4955125;28;20239;-75
2023/12/19 14:44:07;;;;;;;6.37;2.33;;;7.90;99.90;;;;;;4955623;28;20212;-76
2023/12/19 14:46:35;;;;;;;3.60;2.10;;;8.00;99.90;;;;;;4956390;28;20569;-77
2023/12/19 14:49:03;;;;;;;3.30;1.87;;;8.00;99.90;;;;;;4955126;28;20339;-74
2023/12/19 14:51:30;;;;;;;4.37;2.40;;;7.90;99.90;;;;;;4954733;29;20247;-74
2023/12/19 14:53:57;;;;;;;3.77;2.47;;;8.00;99.90;;;;;;4954638;29;20219;-73
2023/12/19 14:56:25;;;;;;;4.07;2.20;;;8.00;99.90;;;;;;4954850;29;20310;-73
2023/12/19 14:58:53;;;;;;;4.57;2.43;;;7.90;99.90;;;;;;4954467;28;20279;-74
2023/12/19 15:01:20;;;;;;;4.47;2.50;;;7.90;99.90;;;;;;4954435;28;20247;-75
2023/12/19 15:04:09;;;;;;;3.33;1.67;;;7.90;99.90;;;;;;4954399;29;20211;-76
2023/12/19 15:06:38;;;;;;;4.10;2.37;;;8.00;99.90;;;;;;4947459;28;20212;-75
2023/12/19 15:09:06;;;;;;;4.93;1.93;;;8.00;99.90;;;;;;4954644;28;20231;-76
2023/12/19 15:11:33;;;;;;;5.80;2.03;;;8.00;99.90;;;;;;4954873;28;20675;-75
2023/12/19 15:14:00;;;;;;;4.47;2.40;;;8.00;99.90;;;;;;4954807;29;20203;-75
2023/12/19 15:16:28;;;;;;;4.93;2.37;;;8.00;99.90;;;;;;4954640;29;20226;-75
2023/12/19 15:18:56;;;;;;;9.40;3.17;;;8.00;99.90;;;;;;4954595;28;20331;-75
2023/12/19 15:21:23;;;;;;;6.37;2.53;;;8.00;99.90;;;;;;4954620;28;20580;-75
2023/12/19 15:23:52;;;;;;;4.97;2.60;;;8.10;99.90;;;;;;4954458;28;20211;-76
2023/12/19 15:26:20;;;;;;;7.40;2.37;;;8.20;99.90;;;;;;4954364;29;20746;-76
2023/12/19 15:28:48;;;;;;;5.47;2.83;;;8.10;99.90;;;;;;4954422;28;20227;-75
2023/12/19 15:31:17;;;;;;;6.17;2.73;;;8.20;99.90;;;;;;4955021;28;20219;-76
2023/12/19 15:33:44;;;;;;;4.43;2.30;;;8.20;99.90;;;;;;4958610;29;20274;-75
2023/12/19 15:36:21;;;;;;;6.17;2.50;;;8.20;99.90;;;;;;4958764;29;20255;-76
2023/12/19 15:38:48;;;;;;;4.87;2.60;;;8.10;99.90;;;;;;4958137;28;20231;-76
2023/12/19 15:41:20;;;;;;;4.07;2.07;;;8.20;99.90;;;;;;4958823;28;20240;-76
2023/12/19 15:43:47;;;;;;;4.57;2.20;;;8.20;99.90;;;;;;4960093;29;20212;-76
2023/12/19 15:46:14;;;;;;;6.93;3.17;;;8.20;99.90;;;;;;4960096;29;20299;-76
2023/12/19 15:48:42;;;;;;;5.37;2.73;;;8.20;99.90;;;;;;4960167;28;20231;-76
2023/12/19 15:51:18;;;;;;;4.57;2.57;;;8.30;99.90;;;;;;4960548;28;20208;-76
2023/12/19 15:53:46;;;;;;;5.90;2.97;;;8.30;99.90;;;;;;4958340;28;20223;-76
2023/12/19 15:56:14;;;;;;;8.67;2.67;;;8.30;99.90;;;;;;4958200;28;20212;-74
2023/12/19 15:58:43;;;;;;;6.70;3.37;;;8.30;99.90;;;;;;4958569;28;20232;-75
2023/12/19 16:01:10;;;;;;;5.50;3.07;;;8.40;99.90;;;;;;4958246;29;20236;-75
2023/12/19 16:03:37;;;;;;;6.83;3.10;;;8.40;99.90;;;;;;4958356;28;20212;-75
2023/12/19 16:06:04;;;;;;;5.33;2.80;;;8.30;99.90;;;;;;4958861;29;20312;-76
2023/12/19 16:08:32;;;;;;;5.40;2.80;;;8.30;99.90;;;;;;4958696;28;20635;-75
2023/12/19 16:10:59;;;;;;;5.60;2.90;;;8.30;99.90;;;;;;4958806;29;20204;-75
2023/12/19 16:13:27;;;;;;;5.63;2.53;;;8.30;99.90;;;;;;4958684;28;20685;-76
2023/12/19 16:15:55;;;;;;;5.37;2.80;;;8.30;99.90;;;;;;4958167;28;20243;-76
2023/12/19 16:18:23;;;;;;;8.23;3.63;;;8.40;99.90;;;;;;4958213;28;20263;-76
2023/12/19 16:20:50;;;;;;;4.10;2.43;;;8.40;99.90;;;;;;4957501;28;20236;-75
2023/12/19 16:23:17;;;;;;;4.30;2.57;;;8.40;99.90;;;;;;4956471;29;20214;-76
2023/12/19 16:25:44;;;;;;;6.13;2.80;;;8.40;99.90;;;;;;4957218;29;20683;-76
2023/12/19 16:28:11;;;;;;;6.23;2.97;;;8.40;99.90;;;;;;4957513;28;20208;-75
2023/12/19 16:30:38;;;;;;;5.80;3.63;;;8.40;99.90;;;;;;4957441;28;20275;-75
2023/12/19 16:33:09;;;;;;;5.73;2.77;;;8.40;99.90;;;;;;4957568;28;20211;-75
2023/12/19 16:35:36;;;;;;;6.87;3.73;;;8.50;99.90;;;;;;4957487;29;20259;-76
2023/12/19 16:38:05;;;;;;;7.53;2.93;;;8.50;99.90;;;;;;4957356;28;20208;-76
2023/12/19 16:40:32;;;;;;;3.23;2.00;;;8.50;99.90;;;;;;4957162;28;20332;-76
2023/12/19 16:42:59;;;;;;;3.90;2.47;;;8.50;99.90;;;;;;4952729;28;20212;-77
2023/12/19 16:45:26;;;;;;;4.37;2.37;;;8.50;99.90;;;;;;4957508;29;20243;-76
2023/12/19 16:47:53;;;;;;;6.23;2.70;;;8.50;99.90;;;;;;4957226;29;20262;-76
2023/12/19 16:50:22;;;;;;;3.70;2.33;;;8.50;99.90;;;;;;4957291;28;20236;-76
2023/12/19 16:52:50;;;;;;;5.13;2.87;;;8.60;99.90;;;;;;4957462;29;20303;-81
2023/12/19 16:55:17;;;;;;;4.97;2.50;;;8.60;99.90;;;;;;4957791;29;20212;-76
2023/12/19 16:57:44;;;;;;;4.57;2.60;;;8.60;99.90;;;;;;4958136;28;20239;-77
2023/12/19 17:00:13;;;;;;;5.30;2.73;;;8.60;99.90;;;;;;4957683;28;20232;-79
2023/12/19 17:02:40;;;;;;;4.33;2.33;;;8.60;99.90;;;;;;4957620;29;20244;-77
2023/12/19 17:05:07;;;;;;;6.17;2.67;;;8.60;99.90;;;;;;4956947;29;20212;-76
2023/12/19 17:07:36;;;;;;;5.83;2.23;;;8.70;99.90;;;;;;4957308;29;20215;-77
2023/12/19 17:10:03;;;;;;;5.17;3.30;;;8.70;99.90;;;;;;4956812;28;20224;-79
2023/12/19 17:12:30;;;;;;;5.30;3.13;;;8.70;99.90;;;;;;4957083;29;20240;-80
2023/12/19 17:14:57;;;;;;;4.60;2.40;;;8.70;99.90;;;;;;4957112;29;20663;-76
2023/12/19 17:17:26;;;;;;;4.50;2.83;;;8.80;99.90;;;;;;4957015;29;20227;-77
2023/12/19 17:19:54;;;;;;;5.30;2.80;;;8.80;99.90;;;;;;4957277;28;20766;-77
2023/12/19 17:22:21;;;;;;;8.03;3.03;;;8.90;99.90;;;;;;4956850;29;20240;-76
2023/12/19 17:24:50;;;;;;;3.87;2.33;;;8.90;99.90;;;;;;4956677;29;20295;-76
2023/12/19 17:27:17;;;;;;;4.23;2.80;;;8.90;99.90;;;;;;4956895;29;20231;-78
2023/12/19 17:29:47;;;;;;;6.17;3.30;;;8.90;99.90;;;;;;4957735;28;20560;-77
2023/12/19 17:32:15;;;;;;;5.87;3.57;;;8.90;99.90;;;;;;4958203;29;20204;-77
2023/12/19 17:34:44;;;;;;;4.07;2.50;;;8.90;99.90;;;;;;4956948;29;20208;-78
2023/12/19 17:37:11;;;;;;;4.13;2.17;;;8.90;99.90;;;;;;4956538;28;20226;-77
2023/12/19 17:39:39;;;;;;;4.97;2.47;;;8.90;99.90;;;;;;4955959;28;20232;-76
2023/12/19 17:42:08;;;;;;;4.27;2.30;;;8.90;99.90;;;;;;4956138;28;20240;-78
2023/12/19 17:44:36;;;;;;;4.70;2.60;;;8.90;99.90;;;;;;4956248;29;20212;-76
2023/12/19 17:47:04;;;;;;;5.83;2.70;;;9.00;99.90;;;;;;4956120;29;20262;-77
2023/12/19 17:49:33;;;;;;;8.40;3.00;;;9.00;99.90;;;;;;4956077;28;20583;-76
2023/12/19 17:52:04;;;;;;;3.87;2.67;;;9.10;99.90;;;;;;4956227;29;20662;-77
2023/12/19 17:54:31;;;;;;;3.33;1.63;;;9.10;99.90;;;;;;4955985;28;20215;-77
2023/12/19 17:57:02;;;;;;;5.20;1.80;;;9.20;99.90;;;;;;4955470;28;20200;-76
2023/12/19 17:59:30;;;;;;;3.03;1.80;;;9.20;99.90;;;;;;4955882;28;20228;-77
2023/12/19 18:01:58;;;;;;;2.77;1.73;;;9.20;99.90;;;;;;4956009;28;20327;-77
2023/12/19 18:04:25;;;;;;;2.93;1.43;;;9.30;99.90;;;;;;4956509;29;20291;-77
2023/12/19 18:06:52;;;;;;;2.60;1.53;;;9.30;99.90;;;;;;4955762;28;20287;-76
2023/12/19 18:09:20;;;;;;;3.00;1.90;;;9.40;99.90;;;;;;4955834;28;20244;-76
2023/12/19 18:11:48;;;;;;;2.93;1.40;;;9.40;99.90;;;;;;4955572;28;20208;-77
2023/12/19 18:14:15;;;;;;;1.97;1.07;;;9.40;99.90;;;;;;4955853;28;20208;-76
2023/12/19 18:16:44;;;;;;;0.93;0.80;;;9.30;99.90;;;;;;4956027;28;20211;-77
2023/12/19 18:19:11;;;;;;;1.50;1.00;;;9.30;99.90;;;;;;4955792;28;20295;-76
2023/12/19 18:21:39;;;;;;;2.70;0.90;;;9.30;99.90;;;;;;4952245;28;20235;-75
2023/12/19 18:24:07;;;;;;;2.07;1.27;;;9.30;99.90;;;;;;4949059;28;20303;-75
2023/12/19 18:26:34;;;;;;;4.00;1.30;;;9.40;99.90;;;;;;4955551;28;20262;-75
2023/12/19 18:29:01;;;;;;;1.40;1.00;;;9.50;99.90;;;;;;4955062;28;20232;-76
2023/12/19 18:31:28;;;;;;;1.87;1.27;;;9.50;99.90;;;;;;4955576;28;20218;-76
2023/12/19 18:33:57;;;;;;;2.17;1.47;;;9.50;99.90;;;;;;4956467;28;20562;-75
2023/12/19 18:36:23;;;;;;;3.63;1.37;;;9.60;99.90;;;;;;4954405;28;20208;-75
2023/12/19 18:38:51;;;;;;;3.07;1.57;;;9.60;99.90;;;;;;4954402;28;20568;-75
2023/12/19 18:41:18;;;;;;;1.97;1.43;;;9.50;99.90;;;;;;4954175;28;20243;-75
2023/12/19 18:43:46;;;;;;;2.40;1.40;;;9.60;99.90;;;;;;4954143;28;20236;-75
2023/12/19 18:46:14;;;;;;;3.37;1.60;;;9.60;99.90;;;;;;4954968;28;20212;-75
2023/12/19 18:48:42;;;;;;;3.50;2.20;;;9.70;99.90;;;;;;4954329;28;20631;-75
2023/12/19 18:51:12;;;;;;;2.93;1.83;;;9.70;99.90;;;;;;4954601;28;20332;-75
2023/12/19 18:53:40;;;;;;;4.80;1.90;;;9.70;99.90;;;;;;4947064;28;20271;-75
2023/12/19 18:56:08;;;;;;;3.67;2.37;;;9.80;99.90;;;;;;4936049;28;20632;-73
2023/12/19 18:58:35;;;;;;;3.30;2.00;;;9.80;99.90;;;;;;4953500;29;20260;-75
2023/12/19 19:01:05;;;;;;;3.97;2.20;;;9.80;99.90;;;;;;4953819;28;20576;-75
2023/12/19 19:03:33;;;;;;;4.13;2.00;;;9.80;99.90;;;;;;4954226;28;20215;-74
2023/12/19 19:06:00;;;;;;;3.40;2.00;;;9.80;99.90;;;;;;4941447;29;20630;-75
2023/12/19 19:08:36;;;;;;;3.63;2.40;;;9.90;99.90;;;;;;4953368;28;20302;-75
2023/12/19 19:11:03;;;;;;;4.67;2.50;;;9.90;99.90;;;;;;4954185;28;20219;-75
2023/12/19 19:13:30;;;;;;;3.70;2.40;;;9.80;99.90;;;;;;4953834;28;20247;-75
2023/12/19 19:15:57;;;;;;;3.80;2.40;;;9.80;99.90;;;;;;4954087;28;20231;-76
2023/12/19 19:18:25;;;;;;;6.70;2.70;;;9.70;99.90;;;;;;4953603;28;20303;-75
2023/12/19 19:20:52;;;;;;;3.43;2.10;;;9.80;99.90;;;;;;4953955;28;20212;-75
2023/12/19 19:23:20;;;;;;;4.97;2.20;;;9.80;99.90;;;;;;4953528;28;20231;-74
2023/12/19 19:25:49;;;;;;;4.47;2.70;;;9.90;99.90;;;;;;4948938;28;20596;-75
2023/12/19 19:28:18;;;;;;;8.80;4.17;;;9.90;99.90;;;;;;4953844;28;20211;-76
2023/12/19 19:30:46;;;;;;;5.03;3.07;;;9.90;99.90;;;;;;4954108;28;20212;-75
2023/12/19 19:33:14;;;;;;;5.80;3.20;;;9.80;99.90;;;;;;4953553;28;20204;-75
2023/12/19 19:35:41;;;;;;;6.67;3.17;;;9.80;99.90;;;;;;4954236;28;20282;-76
2023/12/19 19:38:08;;;;;;;6.37;2.57;;;9.80;99.90;;;;;;4954139;28;20208;-75
2023/12/19 19:40:39;;;;;;;3.77;2.50;;;9.70;99.90;;;;;;4953955;28;20314;-76
2023/12/19 19:43:08;;;;;;;7.17;3.20;;;9.70;99.90;;;;;;4954194;28;20629;-75
2023/12/19 19:45:35;;;;;;;5.17;2.63;;;9.70;99.90;;;;;;4954347;28;20208;-76
2023/12/19 19:48:02;;;;;;;4.20;2.33;;;9.80;99.90;;;;;;4956883;28;20243;-74
2023/12/19 19:50:29;;;;;;;6.80;2.60;;;9.70;99.90;;;;;;4956569;28;20224;-76
2023/12/19 19:52:57;;;;;;;4.30;2.43;;;9.80;99.90;;;;;;4957393;28;20212;-74
2023/12/19 19:55:25;;;;;;;5.73;2.73;;;9.90;99.90;;;;;;4950626;28;20205;-75
2023/12/19 19:57:52;;;;;;;4.43;2.33;;;9.90;99.90;;;;;;4948515;28;20259;-75
2023/12/19 20:00:21;;;;;;;5.67;2.23;;;9.80;99.90;;;;;;4953739;28;20287;-75
2023/12/19 20:02:48;;;;;;;3.90;2.50;;;9.80;99.90;;;;;;4941205;28;20765;-75
2023/12/19 20:05:17;;;;;;;4.83;2.70;;;9.70;99.90;;;;;;4953669;28;20513;-75
2023/12/19 20:07:44;;;;;;;4.23;2.43;;;9.80;99.90;;;;;;4953972;28;20218;-75
2023/12/19 20:10:11;;;;;;;4.63;2.60;;;9.80;99.90;;;;;;4953443;28;20228;-75
2023/12/19 20:12:38;;;;;;;4.93;2.67;;;9.70;99.90;;;;;;4953990;28;20303;-75
2023/12/19 20:15:06;;;;;;;5.43;2.57;;;9.70;99.90;;;;;;4953614;28;20211;-75
2023/12/19 20:17:34;;;;;;;6.03;3.00;;;9.80;99.90;;;;;;4953836;28;20216;-75
2023/12/19 20:20:02;;;;;;;5.77;3.07;;;9.90;99.90;;;;;;4956524;28;20283;-76
2023/12/19 20:22:30;;;;;;;6.03;3.20;;;9.80;99.90;;;;;;4956911;28;20308;-76
2023/12/19 20:24:59;;;;;;;7.17;3.23;;;9.80;99.90;;;;;;4956523;28;20239;-75
2023/12/19 20:27:26;;;;;;;6.33;3.23;;;9.80;99.90;;;;;;4957222;28;20204;-75
2023/12/19 20:29:53;;;;;;;9.43;3.57;;;9.80;99.90;;;;;;4956889;28;20224;-75
2023/12/19 20:32:20;;;;;;;6.50;3.60;;;9.80;99.90;;;;;;4957277;28;20200;-75
2023/12/19 20:34:49;;;;;;;9.20;4.10;;;9.70;99.90;;;;;;4957043;28;20208;-75
2023/12/19 20:37:16;;;;;;;7.70;3.80;;;9.70;99.90;;;;;;4957194;28;20200;-76
2023/12/19 20:39:43;;;;;;;8.70;4.57;;;9.80;99.90;;;;;;4956720;28;20307;-75
2023/12/19 20:42:10;;;;;;;6.20;3.93;;;9.70;99.90;;;;;;4956703;28;20267;-75
2023/12/19 20:44:39;;;;;;;8.67;3.73;;;9.70;99.90;;;;;;4956670;28;20235;-75
2023/12/19 20:47:06;;;;;;;10.20;4.73;;;9.70;99.90;;;;;;4956951;29;20219;-75
2023/12/19 20:49:34;;;;;;;8.33;4.47;;;9.70;99.90;;;;;;4956612;28;20235;-76
2023/12/19 20:52:04;;;;;;;8.50;4.57;;;9.80;99.90;;;;;;4956711;28;20248;-75
2023/12/19 20:54:31;;;;;;;8.20;4.00;;;9.90;99.90;;;;;;4956373;28;20239;-75
2023/12/19 20:56:59;;;;;;;9.27;4.50;;;9.90;99.90;;;;;;4956934;28;20264;-75
2023/12/19 20:59:26;;;;;;;7.57;4.10;;;9.80;99.90;;;;;;4956859;28;20232;-75
2023/12/19 21:01:53;;;;;;;8.80;4.57;;;9.80;99.90;;;;;;4956347;28;20351;-75
2023/12/19 21:04:20;;;;;;;8.70;4.50;;;9.80;99.90;;;;;;4956177;28;20208;-75
2023/12/19 21:06:48;;;;;;;8.07;4.00;;;9.90;99.90;;;;;;4956690;28;20219;-75
2023/12/19 21:09:16;;;;;;;9.03;5.07;;;10.00;99.90;;;;;;4956902;28;20247;-73
2023/12/19 21:11:43;;;;;;;8.70;4.30;;;9.90;99.90;;;;;;4956801;28;20215;-75
2023/12/19 21:14:11;;;;;;;8.27;3.87;;;9.70;99.90;;;;;;4956692;28;20201;-75
2023/12/19 21:16:40;;;;;;;7.00;4.00;;;9.80;99.90;;;;;;4956232;28;20204;-75
2023/12/19 21:19:07;;;;;;;5.90;3.40;;;9.70;99.90;;;;;;4956336;28;20223;-75
2023/12/19 21:21:34;;;;;;;6.70;3.70;;;9.60;99.90;;;;;;4956166;28;20263;-75
2023/12/19 21:24:02;;;;;;;7.50;3.83;;;9.60;99.90;;;;;;4956624;28;20663;-75
2023/12/19 21:26:31;;;;;;;6.13;3.77;;;9.70;99.90;;;;;;4956633;28;20212;-75
2023/12/19 21:28:58;;;;;;;7.57;3.80;;;9.60;99.90;;;;;;4956640;28;20234;-75
2023/12/19 21:31:25;;;;;;;6.47;3.70;;;9.50;99.90;;;;;;4955977;28;20208;-76
2023/12/19 21:33:52;;;;;;;7.90;3.87;;;9.40;99.90;;;;;;4956359;28;20276;-75
2023/12/19 21:36:20;;;;;;;6.03;2.90;;;9.50;99.90;;;;;;4955868;28;20291;-76
2023/12/19 21:38:47;;;;;;;7.40;3.80;;;9.60;99.90;;;;;;4956469;28;20227;-75
2023/12/19 21:41:15;;;;;;;6.70;3.53;;;9.70;99.90;;;;;;4956528;28;20259;-75
2023/12/19 21:43:43;;;;;;;4.90;2.90;;;9.60;99.90;;;;;;4956631;28;20236;-76
2023/12/19 21:46:09;;;;;;;6.87;3.23;;;9.60;99.90;;;;;;4956395;28;20295;-74
2023/12/19 21:48:37;;;;;;;6.87;2.53;;;9.50;99.90;;;;;;4956469;28;20687;-76
2023/12/19 21:51:04;;;;;;;7.87;2.87;;;9.50;99.90;;;;;;4956301;28;20215;-76
2023/12/19 21:53:33;;;;;;;6.17;3.03;;;9.40;99.90;;;;;;4955875;28;20675;-75
2023/12/19 21:56:04;;;;;;;5.37;2.90;;;9.60;99.90;;;;;;4955527;28;20208;-74
2023/12/19 21:58:31;;;;;;;5.57;3.20;;;9.60;99.90;;;;;;4956065;28;20228;-75